Time;durP1;ratioP1;P1;durP2;ratioP2;P2;SDS_P1;SDS_P2;PMS_P1;PMS_P2;Temp;Humidity;BMP_temperature;BMP_pressure;BME280_temperature;BME280_humidity;BME280_pressure;Samples;Min_cycle;Max_cycle;Signal;HPM_P1;HPM_P2
2021/11/20 00:00:44;;;;;;;0.10;0.10;;;;;;;;;;6005083;23;20016;-92
2021/11/20 00:03:10;;;;;;;0.10;0.10;;;;;;;;;;6005341;23;20092;-91
2021/11/20 00:05:39;;;;;;;0.25;0.20;;;;;;;;;;6005444;23;20027;-91
2021/11/20 00:08:06;;;;;;;0.10;0.10;;;;;;;;;;5981604;24;20021;-91
2021/11/20 00:10:32;;;;;;;0.10;0.10;;;;;;;;;;6005272;23;20068;-92
2021/11/20 00:12:58;;;;;;;0.10;0.10;;;;;;;;;;6004765;23;20020;-91
2021/11/20 00:15:27;;;;;;;0.10;0.10;;;;;;;;;;6005014;23;20016;-91
2021/11/20 00:17:53;;;;;;;0.10;0.10;;;;;;;;;;6004596;23;20099;-91
2021/11/20 00:20:19;;;;;;;0.10;0.10;;;;;;;;;;6004563;23;20024;-92
2021/11/20 00:22:46;;;;;;;0.28;0.28;;;;;;;;;;6004687;23;20068;-92
2021/11/20 00:25:21;;;;;;;0.10;0.10;;;;;;;;;;5980776;24;20094;-93
2021/11/20 00:27:48;;;;;;;0.20;0.20;;;;;;;;;;6004224;23;20016;-92
2021/11/20 00:30:16;;;;;;;0.10;0.10;;;;;;;;;;6004983;23;20027;-91
2021/11/20 00:32:45;;;;;;;0.10;0.10;;;;;;;;;;6004768;23;20016;-91
2021/11/20 00:35:12;;;;;;;0.10;0.10;;;;;;;;;;5980872;24;20095;-90
2021/11/20 00:37:39;;;;;;;0.10;0.10;;;;;;;;;;6004323;23;20059;-91
2021/11/20 00:40:05;;;;;;;0.20;0.20;;;;;;;;;;5980856;24;20400;-91
2021/11/20 00:42:31;;;;;;;0.15;0.15;;;;;;;;;;5980691;24;20426;-90
2021/11/20 00:44:58;;;;;;;0.13;0.13;;;;;;;;;;6003950;23;20044;-91
2021/11/20 00:47:25;;;;;;;0.10;0.10;;;;;;;;;;5980617;24;20068;-91
2021/11/20 00:49:51;;;;;;;0.38;0.20;;;;;;;;;;6004137;23;20391;-90
2021/11/20 00:52:16;;;;;;;0.10;0.10;;;;;;;;;;6004120;23;20048;-91
2021/11/20 00:54:43;;;;;;;0.10;0.10;;;;;;;;;;6004470;23;20016;-92
2021/11/20 00:57:09;;;;;;;0.10;0.10;;;;;;;;;;5980791;24;20252;-90
2021/11/20 00:59:35;;;;;;;0.10;0.10;;;;;;;;;;6004251;23;20047;-90
2021/11/20 01:02:02;;;;;;;0.10;0.10;;;;;;;;;;5980621;24;20020;-90
2021/11/20 01:04:28;;;;;;;0.10;0.10;;;;;;;;;;5980431;24;20016;-90
2021/11/20 01:06:54;;;;;;;0.10;0.10;;;;;;;;;;5980534;24;20027;-91
2021/11/20 01:09:22;;;;;;;0.10;0.10;;;;;;;;;;6004125;23;20442;-91
2021/11/20 01:11:56;;;;;;;0.10;0.10;;;;;;;;;;6003635;23;20103;-90
2021/11/20 01:14:25;;;;;;;0.10;0.10;;;;;;;;;;6003782;23;20016;-90
2021/11/20 01:16:51;;;;;;;0.10;0.10;;;;;;;;;;6003391;23;20020;-90
2021/11/20 01:19:17;;;;;;;0.10;0.10;;;;;;;;;;5980644;24;20469;-90
2021/11/20 01:21:43;;;;;;;0.10;0.10;;;;;;;;;;6003810;23;20020;-90
2021/11/20 01:24:09;;;;;;;0.10;0.10;;;;;;;;;;5980361;24;20506;-91
2021/11/20 01:26:35;;;;;;;0.10;0.10;;;;;;;;;;5980450;24;20028;-90
2021/11/20 01:29:01;;;;;;;0.10;0.10;;;;;;;;;;5980571;24;20095;-90
2021/11/20 01:31:28;;;;;;;0.10;0.10;;;;;;;;;;5980242;24;20056;-90
2021/11/20 01:33:54;;;;;;;0.10;0.10;;;;;;;;;;5980135;24;20435;-90
2021/11/20 01:36:21;;;;;;;0.10;0.10;;;;;;;;;;5980471;24;20023;-90
2021/11/20 01:38:47;;;;;;;0.10;0.10;;;;;;;;;;6006150;23;20012;-92
2021/11/20 01:41:13;;;;;;;0.75;0.75;;;;;;;;;;6006051;23;20087;-92
2021/11/20 01:43:39;;;;;;;0.10;0.10;;;;;;;;;;6006001;23;20462;-90
2021/11/20 01:46:25;;;;;;;0.20;0.20;;;;;;;;;;6005866;23;20087;-91
2021/11/20 01:48:51;;;;;;;0.10;0.10;;;;;;;;;;6006040;23;20016;-91
2021/11/20 01:51:19;;;;;;;0.10;0.10;;;;;;;;;;5982368;24;20008;-91
2021/11/20 01:53:48;;;;;;;0.10;0.10;;;;;;;;;;5982306;24;20020;-92
2021/11/20 01:56:16;;;;;;;0.10;0.10;;;;;;;;;;5982485;24;20016;-91
2021/11/20 01:58:44;;;;;;;0.10;0.10;;;;;;;;;;6005847;23;20016;-92
2021/11/20 02:01:15;;;;;;;0.10;0.10;;;;;;;;;;6005461;23;20052;-91
2021/11/20 02:03:53;;;;;;;0.17;0.17;;;;;;;;;;6006034;23;20012;-92
2021/11/20 02:06:32;;;;;;;0.10;0.10;;;;;;;;;;5982493;24;20410;-91
2021/11/20 02:08:58;;;;;;;0.10;0.10;;;;;;;;;;5982873;24;20052;-92
2021/11/20 02:11:36;;;;;;;0.10;0.10;;;;;;;;;;5982743;24;20409;-91
2021/11/20 02:14:02;;;;;;;0.10;0.10;;;;;;;;;;6005526;23;20017;-91
2021/11/20 02:16:29;;;;;;;0.10;0.10;;;;;;;;;;6005642;23;20103;-91
2021/11/20 02:18:57;;;;;;;0.10;0.10;;;;;;;;;;6005623;23;20443;-91
2021/11/20 02:21:25;;;;;;;0.30;0.30;;;;;;;;;;6005560;23;20012;-91
2021/11/20 02:23:52;;;;;;;0.10;0.10;;;;;;;;;;5982274;24;20016;-92
2021/11/20 02:26:18;;;;;;;0.10;0.10;;;;;;;;;;5982146;24;20103;-91
2021/11/20 02:28:45;;;;;;;0.10;0.10;;;;;;;;;;5982330;24;20049;-91
2021/11/20 02:31:11;;;;;;;0.10;0.10;;;;;;;;;;6005700;23;20255;-92
2021/11/20 02:33:38;;;;;;;0.10;0.10;;;;;;;;;;6005860;23;20020;-92
2021/11/20 02:36:08;;;;;;;0.10;0.10;;;;;;;;;;5982310;24;20027;-92
2021/11/20 02:38:37;;;;;;;0.10;0.10;;;;;;;;;;6006007;23;20023;-91
2021/11/20 02:41:04;;;;;;;0.10;0.10;;;;;;;;;;5982332;24;20020;-91
2021/11/20 02:43:32;;;;;;;0.20;0.20;;;;;;;;;;5982123;24;20016;-92
2021/11/20 02:45:58;;;;;;;0.10;0.10;;;;;;;;;;6005486;23;20028;-93
2021/11/20 02:48:24;;;;;;;0.10;0.10;;;;;;;;;;5981876;24;20017;-92
2021/11/20 02:50:52;;;;;;;0.10;0.10;;;;;;;;;;5982106;24;20125;-92
2021/11/20 02:53:22;;;;;;;0.20;0.20;;;;;;;;;;5982729;24;20008;-91
2021/11/20 02:55:52;;;;;;;0.10;0.10;;;;;;;;;;6005334;23;20012;-91
2021/11/20 02:58:19;;;;;;;0.10;0.10;;;;;;;;;;5982549;24;20024;-91
2021/11/20 03:00:45;;;;;;;0.40;0.20;;;;;;;;;;5981779;24;20012;-90
2021/11/20 03:03:12;;;;;;;0.10;0.10;;;;;;;;;;6005245;23;20514;-91
2021/11/20 03:05:38;;;;;;;0.10;0.10;;;;;;;;;;6005544;23;20099;-92
2021/11/20 03:08:04;;;;;;;0.10;0.10;;;;;;;;;;6005056;23;20027;-91
2021/11/20 03:10:30;;;;;;;0.10;0.10;;;;;;;;;;6005451;23;20020;-92
2021/11/20 03:12:56;;;;;;;0.10;0.10;;;;;;;;;;6005416;23;20027;-91
2021/11/20 03:15:23;;;;;;;0.10;0.10;;;;;;;;;;6005383;23;20311;-91
2021/11/20 03:17:49;;;;;;;0.10;0.10;;;;;;;;;;6005092;23;20047;-91
2021/11/20 03:20:15;;;;;;;0.10;0.10;;;;;;;;;;6005094;23;20026;-92
2021/11/20 03:23:02;;;;;;;0.10;0.10;;;;;;;;;;6005631;23;20020;-92
2021/11/20 03:25:28;;;;;;;0.10;0.10;;;;;;;;;;6005284;23;20060;-92
2021/11/20 03:27:54;;;;;;;0.10;0.10;;;;;;;;;;5981563;24;20016;-92
2021/11/20 03:30:20;;;;;;;0.10;0.10;;;;;;;;;;6005048;23;20350;-92
2021/11/20 03:32:46;;;;;;;0.10;0.10;;;;;;;;;;6004757;23;20020;-91
2021/11/20 03:35:12;;;;;;;0.10;0.10;;;;;;;;;;6004728;23;20016;-91
2021/11/20 03:37:38;;;;;;;0.10;0.10;;;;;;;;;;5981355;24;20023;-93
2021/11/20 03:40:05;;;;;;;0.10;0.10;;;;;;;;;;6004922;23;20478;-92
2021/11/20 03:42:31;;;;;;;0.10;0.10;;;;;;;;;;6004638;23;20084;-93
2021/11/20 03:44:57;;;;;;;0.10;0.10;;;;;;;;;;6004959;23;20411;-92
2021/11/20 03:47:23;;;;;;;0.10;0.10;;;;;;;;;;5981633;24;20027;-91
2021/11/20 03:49:49;;;;;;;0.10;0.10;;;;;;;;;;6004965;23;20068;-92
2021/11/20 03:52:15;;;;;;;0.10;0.10;;;;;;;;;;6004990;23;20108;-90
2021/11/20 03:54:41;;;;;;;0.20;0.20;;;;;;;;;;6005335;23;20016;-92
2021/11/20 03:57:07;;;;;;;0.10;0.10;;;;;;;;;;5981440;24;20431;-91
2021/11/20 03:59:34;;;;;;;0.10;0.10;;;;;;;;;;6004919;23;20026;-92
2021/11/20 04:02:00;;;;;;;0.10;0.10;;;;;;;;;;6005043;23;20312;-92
2021/11/20 04:04:27;;;;;;;0.10;0.10;;;;;;;;;;5981172;24;20016;-93
2021/11/20 04:06:53;;;;;;;0.13;0.13;;;;;;;;;;6004713;23;20020;-91
2021/11/20 04:09:19;;;;;;;0.10;0.10;;;;;;;;;;5981918;24;20035;-92
2021/11/20 04:11:46;;;;;;;0.30;0.30;;;;;;;;;;6004822;23;20020;-91
2021/11/20 04:14:12;;;;;;;0.10;0.10;;;;;;;;;;6004593;23;20012;-92
2021/11/20 04:16:39;;;;;;;0.10;0.10;;;;;;;;;;5981252;24;20028;-91
2021/11/20 04:19:05;;;;;;;0.20;0.20;;;;;;;;;;5981346;24;20434;-91
2021/11/20 04:21:31;;;;;;;0.10;0.10;;;;;;;;;;6004850;23;20016;-92
2021/11/20 04:23:57;;;;;;;0.10;0.10;;;;;;;;;;6004383;23;20019;-91
2021/11/20 04:26:23;;;;;;;0.10;0.10;;;;;;;;;;6004663;23;20020;-92
2021/11/20 04:28:49;;;;;;;0.10;0.10;;;;;;;;;;6004592;23;20028;-91
2021/11/20 04:31:15;;;;;;;0.10;0.10;;;;;;;;;;5980879;24;20067;-92
2021/11/20 04:33:41;;;;;;;0.10;0.10;;;;;;;;;;5981102;24;20027;-91
2021/11/20 04:36:08;;;;;;;0.10;0.10;;;;;;;;;;6004642;23;20020;-91
2021/11/20 04:38:34;;;;;;;0.10;0.10;;;;;;;;;;5980886;24;20017;-92
2021/11/20 04:40:59;;;;;;;0.10;0.10;;;;;;;;;;5981325;24;20023;-91
2021/11/20 04:43:25;;;;;;;0.10;0.10;;;;;;;;;;6004667;23;20020;-91
2021/11/20 04:45:52;;;;;;;0.10;0.10;;;;;;;;;;5980855;24;20020;-91
2021/11/20 04:48:19;;;;;;;0.10;0.10;;;;;;;;;;5981087;24;20103;-92
2021/11/20 04:50:45;;;;;;;0.55;0.10;;;;;;;;;;6004465;23;20020;-91
2021/11/20 04:53:18;;;;;;;1.45;0.73;;;;;;;;;;5981291;24;20016;-93
2021/11/20 04:55:44;;;;;;;0.10;0.10;;;;;;;;;;6006780;23;20016;-91
2021/11/20 04:58:10;;;;;;;0.10;0.10;;;;;;;;;;6004053;23;20023;-91
2021/11/20 05:00:37;;;;;;;0.10;0.10;;;;;;;;;;6004407;23;20023;-91
2021/11/20 05:03:07;;;;;;;0.10;0.10;;;;;;;;;;6004526;23;20020;-91
2021/11/20 05:05:34;;;;;;;0.10;0.10;;;;;;;;;;6003849;23;20012;-90
2021/11/20 05:08:00;;;;;;;0.10;0.10;;;;;;;;;;6004415;23;20028;-91
2021/11/20 05:10:26;;;;;;;0.45;0.25;;;;;;;;;;5981177;24;20016;-91
2021/11/20 05:12:52;;;;;;;0.10;0.10;;;;;;;;;;6004327;23;20179;-91
2021/11/20 05:15:18;;;;;;;0.10;0.10;;;;;;;;;;5980931;24;20168;-91
2021/11/20 05:17:44;;;;;;;0.10;0.10;;;;;;;;;;6004307;23;20095;-91
2021/11/20 05:20:10;;;;;;;0.20;0.20;;;;;;;;;;6004385;23;20571;-91
2021/11/20 05:22:36;;;;;;;0.25;0.25;;;;;;;;;;5980769;24;20018;-90
2021/11/20 05:25:02;;;;;;;0.10;0.10;;;;;;;;;;6004090;23;20016;-92
2021/11/20 05:27:28;;;;;;;0.10;0.10;;;;;;;;;;5980602;24;20103;-91
2021/11/20 05:32:20;;;;;;;0.10;0.10;;;;;;;;;;5980530;24;20024;-89
2021/11/20 05:34:46;;;;;;;0.10;0.10;;;;;;;;;;5980259;24;20088;-90
2021/11/20 05:37:12;;;;;;;0.10;0.10;;;;;;;;;;6003483;23;20023;-91
2021/11/20 05:39:38;;;;;;;0.10;0.10;;;;;;;;;;6003654;23;20048;-90
2021/11/20 05:42:05;;;;;;;0.10;0.10;;;;;;;;;;5980309;24;20068;-91
2021/11/20 05:44:31;;;;;;;0.10;0.10;;;;;;;;;;6003685;23;20065;-92
2021/11/20 05:46:59;;;;;;;0.10;0.10;;;;;;;;;;6004705;23;20016;-89
2021/11/20 05:49:33;;;;;;;0.10;0.10;;;;;;;;;;6003719;23;20494;-89
2021/11/20 05:51:59;;;;;;;0.10;0.10;;;;;;;;;;5980578;24;20020;-91
2021/11/20 05:54:26;;;;;;;0.10;0.10;;;;;;;;;;6003859;23;20471;-91
2021/11/20 05:56:52;;;;;;;0.10;0.10;;;;;;;;;;5980082;24;20072;-91
2021/11/20 05:59:18;;;;;;;0.10;0.10;;;;;;;;;;6004176;23;20019;-92
2021/11/20 06:01:45;;;;;;;0.10;0.10;;;;;;;;;;6004199;23;20087;-91
2021/11/20 06:04:11;;;;;;;0.10;0.10;;;;;;;;;;5980538;24;20016;-89
2021/11/20 06:06:37;;;;;;;0.10;0.10;;;;;;;;;;5979794;24;20450;-88
2021/11/20 06:09:03;;;;;;;0.20;0.20;;;;;;;;;;5980131;24;20164;-88
2021/11/20 06:11:29;;;;;;;0.10;0.10;;;;;;;;;;5979844;24;20020;-90
2021/11/20 06:13:55;;;;;;;0.10;0.10;;;;;;;;;;5979925;24;20091;-89
2021/11/20 06:16:21;;;;;;;0.10;0.10;;;;;;;;;;5979713;24;20074;-90
2021/11/20 06:18:47;;;;;;;0.10;0.10;;;;;;;;;;5980696;24;20055;-90
2021/11/20 06:21:13;;;;;;;0.25;0.25;;;;;;;;;;6003304;23;20016;-90
2021/11/20 06:23:40;;;;;;;0.10;0.10;;;;;;;;;;5980407;24;20020;-89
2021/11/20 06:26:06;;;;;;;0.10;0.10;;;;;;;;;;6005126;23;20016;-89
2021/11/20 06:28:32;;;;;;;0.10;0.10;;;;;;;;;;5981652;24;20435;-88
2021/11/20 06:30:59;;;;;;;0.10;0.10;;;;;;;;;;5981697;24;20024;-90
2021/11/20 06:33:25;;;;;;;0.10;0.10;;;;;;;;;;6005233;23;20023;-88
2021/11/20 06:35:51;;;;;;;0.10;0.10;;;;;;;;;;6004894;23;20146;-90
2021/11/20 06:38:17;;;;;;;0.17;0.17;;;;;;;;;;5981383;24;20024;-90
2021/11/20 06:40:43;;;;;;;0.10;0.10;;;;;;;;;;5981565;24;20492;-89
2021/11/20 06:43:11;;;;;;;0.13;0.10;;;;;;;;;;6004620;23;20130;-88
2021/11/20 06:45:37;;;;;;;0.10;0.10;;;;;;;;;;5981151;24;20016;-88
2021/11/20 06:48:04;;;;;;;0.10;0.10;;;;;;;;;;6004934;23;20403;-88
2021/11/20 06:50:30;;;;;;;0.10;0.10;;;;;;;;;;5981489;24;20047;-87
2021/11/20 06:52:56;;;;;;;0.10;0.10;;;;;;;;;;5981038;24;20024;-87
2021/11/20 06:55:23;;;;;;;0.10;0.10;;;;;;;;;;5981333;24;20023;-89
2021/11/20 06:57:53;;;;;;;0.10;0.10;;;;;;;;;;5981089;24;20076;-86
2021/11/20 07:00:29;;;;;;;0.10;0.10;;;;;;;;;;5981530;24;20022;-92
2021/11/20 07:03:04;;;;;;;0.10;0.10;;;;;;;;;;6004817;23;20106;-90
2021/11/20 07:05:31;;;;;;;0.10;0.10;;;;;;;;;;5981384;24;20020;-89
2021/11/20 07:07:58;;;;;;;0.10;0.10;;;;;;;;;;5981206;24;20016;-89
2021/11/20 07:10:24;;;;;;;0.10;0.10;;;;;;;;;;5981306;24;20489;-90
2021/11/20 07:12:50;;;;;;;0.10;0.10;;;;;;;;;;5981090;24;20024;-92
2021/11/20 07:15:16;;;;;;;0.10;0.10;;;;;;;;;;5980949;24;20455;-89
2021/11/20 07:17:44;;;;;;;0.10;0.10;;;;;;;;;;6004766;23;20023;-89
2021/11/20 07:20:11;;;;;;;0.10;0.10;;;;;;;;;;5982542;24;20024;-89
2021/11/20 07:22:37;;;;;;;0.10;0.10;;;;;;;;;;5994906;24;20016;-91
2021/11/20 07:25:03;;;;;;;0.10;0.10;;;;;;;;;;5993603;24;20016;-85
2021/11/20 07:27:30;;;;;;;0.10;0.10;;;;;;;;;;5996926;24;20027;-86
2021/11/20 07:29:56;;;;;;;0.30;0.30;;;;;;;;;;5985912;24;20246;-86
2021/11/20 07:32:26;;;;;;;0.20;0.20;;;;;;;;;;5980882;24;20016;-87
2021/11/20 07:34:52;;;;;;;0.10;0.10;;;;;;;;;;6004148;23;20071;-88
2021/11/20 07:37:18;;;;;;;0.17;0.17;;;;;;;;;;5980503;24;20046;-86
2021/11/20 07:39:44;;;;;;;0.10;0.10;;;;;;;;;;5980891;24;20012;-89
2021/11/20 07:42:10;;;;;;;0.10;0.10;;;;;;;;;;5980564;24;20049;-88
2021/11/20 07:44:36;;;;;;;0.10;0.10;;;;;;;;;;5980747;24;20104;-90
2021/11/20 07:47:02;;;;;;;0.20;0.20;;;;;;;;;;5980668;24;20096;-89
2021/11/20 07:49:28;;;;;;;0.10;0.10;;;;;;;;;;5980985;24;20091;-89
2021/11/20 07:51:54;;;;;;;0.10;0.10;;;;;;;;;;5980715;24;20055;-90
2021/11/20 07:54:20;;;;;;;0.20;0.20;;;;;;;;;;6003943;23;20125;-87
2021/11/20 07:56:46;;;;;;;0.30;0.30;;;;;;;;;;5980498;24;20037;-90
2021/11/20 07:59:13;;;;;;;0.10;0.10;;;;;;;;;;5980621;24;20012;-89
2021/11/20 08:01:39;;;;;;;0.20;0.20;;;;;;;;;;6006488;23;20012;-89
2021/11/20 08:04:05;;;;;;;0.10;0.10;;;;;;;;;;5981461;24;20024;-90
2021/11/20 08:06:31;;;;;;;0.10;0.10;;;;;;;;;;6003774;23;20020;-89
2021/11/20 08:09:02;;;;;;;0.10;0.10;;;;;;;;;;6003838;23;20442;-90
2021/11/20 08:11:28;;;;;;;0.10;0.10;;;;;;;;;;5980816;24;20027;-91
2021/11/20 08:13:54;;;;;;;0.10;0.10;;;;;;;;;;5981392;24;20022;-91
2021/11/20 08:16:21;;;;;;;0.17;0.17;;;;;;;;;;6004283;23;20072;-89
2021/11/20 08:18:47;;;;;;;0.25;0.25;;;;;;;;;;6004211;23;20012;-87
2021/11/20 08:21:14;;;;;;;0.10;0.10;;;;;;;;;;5980192;24;20334;-86
2021/11/20 08:23:41;;;;;;;0.10;0.10;;;;;;;;;;6003480;23;20494;-86
2021/11/20 08:26:07;;;;;;;0.10;0.10;;;;;;;;;;6003857;23;20526;-87
2021/11/20 08:28:33;;;;;;;0.17;0.17;;;;;;;;;;6003710;23;20050;-87
2021/11/20 08:30:59;;;;;;;1.55;0.20;;;;;;;;;;5980098;24;20076;-88
2021/11/20 08:33:26;;;;;;;0.10;0.10;;;;;;;;;;6003359;23;20012;-86
2021/11/20 08:35:52;;;;;;;0.40;0.40;;;;;;;;;;5980161;24;20079;-89
2021/11/20 08:38:18;;;;;;;0.20;0.20;;;;;;;;;;5979910;24;20016;-89
2021/11/20 08:40:44;;;;;;;0.20;0.15;;;;;;;;;;5980246;24;20016;-89
2021/11/20 08:43:11;;;;;;;0.30;0.30;;;;;;;;;;5980113;24;20051;-89
2021/11/20 08:45:39;;;;;;;0.10;0.10;;;;;;;;;;5979952;24;20020;-89
2021/11/20 08:48:05;;;;;;;0.20;0.20;;;;;;;;;;5979986;24;20304;-88
2021/11/20 08:50:37;;;;;;;0.10;0.10;;;;;;;;;;5979880;24;20020;-89
2021/11/20 08:53:04;;;;;;;0.10;0.10;;;;;;;;;;5980154;24;20447;-90
2021/11/20 08:55:30;;;;;;;0.10;0.10;;;;;;;;;;5980258;24;20308;-89
2021/11/20 08:57:56;;;;;;;0.17;0.17;;;;;;;;;;5979751;24;20119;-89
2021/11/20 09:00:29;;;;;;;0.20;0.20;;;;;;;;;;6003123;23;20018;-88
2021/11/20 09:02:58;;;;;;;0.10;0.10;;;;;;;;;;5980102;24;20068;-89
2021/11/20 09:05:27;;;;;;;0.10;0.10;;;;;;;;;;6003498;23;20121;-89
2021/11/20 09:08:03;;;;;;;0.10;0.10;;;;;;;;;;5980439;24;20091;-89
2021/11/20 09:10:32;;;;;;;0.10;0.10;;;;;;;;;;5980593;24;20033;-89
2021/11/20 09:12:58;;;;;;;0.10;0.10;;;;;;;;;;5980515;24;20020;-89
2021/11/20 09:15:33;;;;;;;0.10;0.10;;;;;;;;;;5979939;24;20020;-88
2021/11/20 09:17:59;;;;;;;0.10;0.10;;;;;;;;;;5979611;24;20024;-88
2021/11/20 09:20:26;;;;;;;0.10;0.10;;;;;;;;;;5980177;24;20164;-89
2021/11/20 09:22:54;;;;;;;0.60;0.17;;;;;;;;;;5980083;24;20335;-89
2021/11/20 09:25:20;;;;;;;0.10;0.10;;;;;;;;;;6003611;23;20024;-89
2021/11/20 09:27:47;;;;;;;0.30;0.30;;;;;;;;;;5980241;24;20102;-89
2021/11/20 09:30:21;;;;;;;0.10;0.10;;;;;;;;;;5979974;24;20016;-88
2021/11/20 09:32:46;;;;;;;0.10;0.10;;;;;;;;;;5979880;24;20016;-88
2021/11/20 09:35:12;;;;;;;0.10;0.10;;;;;;;;;;5980084;24;20450;-88
2021/11/20 09:37:38;;;;;;;0.30;0.30;;;;;;;;;;6003245;23;20043;-88
2021/11/20 09:40:05;;;;;;;0.10;0.10;;;;;;;;;;6003275;23;20439;-88
2021/11/20 09:42:31;;;;;;;0.13;0.13;;;;;;;;;;5979629;24;20051;-89
2021/11/20 09:44:59;;;;;;;0.10;0.10;;;;;;;;;;5979763;24;20016;-88
2021/11/20 09:47:33;;;;;;;0.10;0.10;;;;;;;;;;5979868;24;20117;-89
2021/11/20 09:50:10;;;;;;;0.10;0.10;;;;;;;;;;6003482;23;20076;-89
2021/11/20 09:52:36;;;;;;;0.10;0.10;;;;;;;;;;5979806;24;20016;-89
2021/11/20 09:55:02;;;;;;;0.20;0.20;;;;;;;;;;5979746;24;20099;-89
2021/11/20 09:57:30;;;;;;;0.10;0.10;;;;;;;;;;5980313;24;20052;-89
2021/11/20 10:00:10;;;;;;;0.10;0.10;;;;;;;;;;6005150;23;20023;-89
2021/11/20 10:02:45;;;;;;;0.10;0.10;;;;;;;;;;5981402;24;20096;-89
2021/11/20 10:05:11;;;;;;;0.10;0.10;;;;;;;;;;5981551;24;20017;-88
2021/11/20 10:07:38;;;;;;;0.20;0.20;;;;;;;;;;5981476;24;20036;-89
2021/11/20 10:10:23;;;;;;;0.30;0.30;;;;;;;;;;6005109;23;20494;-89
2021/11/20 10:12:50;;;;;;;0.10;0.10;;;;;;;;;;5981489;24;20044;-90
2021/11/20 10:15:18;;;;;;;0.20;0.20;;;;;;;;;;5981573;24;20024;-90
2021/11/20 10:17:49;;;;;;;0.20;0.20;;;;;;;;;;5981724;24;20288;-91
2021/11/20 10:20:18;;;;;;;2.30;0.47;;;;;;;;;;6005213;23;20148;-90
2021/11/20 10:22:56;;;;;;;0.90;0.30;;;;;;;;;;5981978;24;20016;-94
2021/11/20 10:25:32;;;;;;;0.10;0.10;;;;;;;;;;5981876;24;20522;-90
2021/11/20 10:28:16;;;;;;;0.20;0.20;;;;;;;;;;5981450;24;20054;-93
2021/11/20 10:30:52;;;;;;;0.10;0.10;;;;;;;;;;5982517;24;20091;-91
2021/11/20 10:33:28;;;;;;;0.30;0.30;;;;;;;;;;5981530;24;20043;-90
2021/11/20 10:36:09;;;;;;;0.30;0.30;;;;;;;;;;6005793;23;20044;-93
2021/11/20 10:38:39;;;;;;;0.10;0.10;;;;;;;;;;5982193;24;20020;-93
2021/11/20 10:41:17;;;;;;;0.10;0.10;;;;;;;;;;6006070;23;20023;-93
2021/11/20 10:43:45;;;;;;;0.10;0.10;;;;;;;;;;5981798;24;20027;-91
2021/11/20 10:46:32;;;;;;;0.25;0.25;;;;;;;;;;6004523;23;20013;-90
2021/11/20 10:49:17;;;;;;;0.10;0.10;;;;;;;;;;5981278;24;20075;-91
2021/11/20 10:51:51;;;;;;;0.30;0.30;;;;;;;;;;5981150;24;20012;-88
2021/11/20 10:54:26;;;;;;;0.10;0.10;;;;;;;;;;5981132;24;20038;-88
2021/11/20 10:57:07;;;;;;;0.20;0.20;;;;;;;;;;6004053;23;20458;-88
2021/11/20 10:59:52;;;;;;;0.20;0.20;;;;;;;;;;5981017;24;20020;-89
2021/11/20 11:02:35;;;;;;;0.20;0.20;;;;;;;;;;5981762;24;20036;-89
2021/11/20 11:05:10;;;;;;;0.10;0.10;;;;;;;;;;5981165;24;20427;-88
2021/11/20 11:07:38;;;;;;;0.40;0.40;;;;;;;;;;5980705;24;20016;-87
2021/11/20 11:10:06;;;;;;;0.10;0.10;;;;;;;;;;5980532;24;20020;-88
2021/11/20 11:12:38;;;;;;;0.13;0.13;;;;;;;;;;6004026;23;20020;-88
2021/11/20 11:15:07;;;;;;;0.20;0.20;;;;;;;;;;5980761;24;20385;-88
2021/11/20 11:17:43;;;;;;;0.17;0.17;;;;;;;;;;5980403;24;20123;-87
2021/11/20 11:20:19;;;;;;;0.20;0.20;;;;;;;;;;5980762;24;20252;-87
2021/11/20 11:22:50;;;;;;;0.10;0.10;;;;;;;;;;5980968;24;20107;-88
2021/11/20 11:25:21;;;;;;;0.10;0.10;;;;;;;;;;6004229;23;20087;-88
2021/11/20 11:27:50;;;;;;;0.10;0.10;;;;;;;;;;6004072;23;20391;-88
2021/11/20 11:30:16;;;;;;;0.13;0.13;;;;;;;;;;5980809;24;20459;-88
2021/11/20 11:32:43;;;;;;;0.22;0.20;;;;;;;;;;5980756;24;20123;-87
2021/11/20 11:35:19;;;;;;;0.30;0.30;;;;;;;;;;6004128;23;20427;-88
2021/11/20 11:37:54;;;;;;;0.20;0.20;;;;;;;;;;5980618;24;20016;-87
2021/11/20 11:40:32;;;;;;;0.10;0.10;;;;;;;;;;5981247;24;20047;-88
2021/11/20 11:43:10;;;;;;;0.43;0.30;;;;;;;;;;5980742;24;20052;-89
2021/11/20 11:45:49;;;;;;;0.10;0.10;;;;;;;;;;5981039;24;20020;-90
2021/11/20 11:48:15;;;;;;;0.38;0.38;;;;;;;;;;5983985;24;20103;-91
2021/11/20 11:50:52;;;;;;;0.45;0.40;;;;;;;;;;5985621;24;20462;-89
2021/11/20 11:53:38;;;;;;;0.10;0.10;;;;;;;;;;6019443;23;20007;-89
2021/11/20 11:56:11;;;;;;;0.10;0.10;;;;;;;;;;6007720;23;20036;-88
2021/11/20 11:59:01;;;;;;;0.10;0.10;;;;;;;;;;6003640;23;20120;-89
2021/11/20 12:01:41;;;;;;;0.10;0.10;;;;;;;;;;6003651;23;20031;-89
2021/11/20 12:04:07;;;;;;;0.20;0.20;;;;;;;;;;5980988;24;20016;-88
2021/11/20 12:06:41;;;;;;;0.20;0.20;;;;;;;;;;5980837;24;20094;-88
2021/11/20 12:09:10;;;;;;;0.10;0.10;;;;;;;;;;6004051;23;20261;-89
2021/11/20 12:11:37;;;;;;;0.32;0.30;;;;;;;;;;5980444;24;20076;-88
2021/11/20 12:14:10;;;;;;;0.15;0.15;;;;;;;;;;5980543;24;20012;-88
2021/11/20 12:16:45;;;;;;;0.20;0.20;;;;;;;;;;5980242;24;20020;-87
2021/11/20 12:19:22;;;;;;;0.10;0.10;;;;;;;;;;5980570;24;20020;-88
2021/11/20 12:21:58;;;;;;;0.10;0.10;;;;;;;;;;5980468;24;20016;-88
2021/11/20 12:24:26;;;;;;;0.38;0.20;;;;;;;;;;5980337;24;20444;-88
2021/11/20 12:26:55;;;;;;;0.10;0.10;;;;;;;;;;6003846;23;20120;-88
2021/11/20 12:29:36;;;;;;;0.17;0.17;;;;;;;;;;6003994;23;20234;-89
2021/11/20 12:32:06;;;;;;;0.10;0.10;;;;;;;;;;5980551;24;20016;-89
2021/11/20 12:34:53;;;;;;;0.47;0.30;;;;;;;;;;5980491;24;20016;-89
2021/11/20 12:37:35;;;;;;;0.40;0.40;;;;;;;;;;5980261;24;20020;-88
2021/11/20 12:40:13;;;;;;;0.20;0.20;;;;;;;;;;5980115;24;20056;-88
2021/11/20 12:42:39;;;;;;;0.10;0.10;;;;;;;;;;5980016;24;20024;-87
2021/11/20 12:45:10;;;;;;;0.28;0.20;;;;;;;;;;5980133;24;20027;-87
2021/11/20 12:47:39;;;;;;;0.28;0.20;;;;;;;;;;5980128;24;20016;-88
2021/11/20 12:50:08;;;;;;;0.20;0.20;;;;;;;;;;5980052;24;20095;-88
2021/11/20 12:52:36;;;;;;;0.10;0.10;;;;;;;;;;5979982;24;20070;-92
2021/11/20 12:55:21;;;;;;;0.10;0.10;;;;;;;;;;5980426;24;20020;-88
2021/11/20 12:57:54;;;;;;;0.70;0.50;;;;;;;;;;5979911;24;20020;-87
2021/11/20 13:00:23;;;;;;;0.10;0.10;;;;;;;;;;5980416;24;20054;-87
2021/11/20 13:03:03;;;;;;;0.10;0.10;;;;;;;;;;5979966;24;20570;-87
2021/11/20 13:05:29;;;;;;;0.20;0.20;;;;;;;;;;5980281;24;20020;-87
2021/11/20 13:08:03;;;;;;;0.10;0.10;;;;;;;;;;5979956;24;20016;-88
2021/11/20 13:10:35;;;;;;;0.17;0.17;;;;;;;;;;5980197;24;20096;-87
2021/11/20 13:13:39;;;;;;;0.10;0.10;;;;;;;;;;5979883;24;20020;-86
2021/11/20 13:16:24;;;;;;;0.10;0.10;;;;;;;;;;6007185;23;20020;-86
2021/11/20 13:19:16;;;;;;;0.30;0.30;;;;;;;;;;6007072;23;20024;-87
2021/11/20 13:21:54;;;;;;;0.10;0.10;;;;;;;;;;5954412;24;20020;-90
2021/11/20 13:24:21;;;;;;;0.20;0.20;;;;;;;;;;5980240;24;20249;-87
2021/11/20 13:27:00;;;;;;;0.38;0.20;;;;;;;;;;5980059;24;20051;-90
2021/11/20 13:29:35;;;;;;;0.20;0.20;;;;;;;;;;5980311;24;20008;-87
2021/11/20 13:32:02;;;;;;;1.00;0.20;;;;;;;;;;5980250;24;20058;-88
2021/11/20 13:34:28;;;;;;;0.20;0.20;;;;;;;;;;6005334;23;20024;-88
2021/11/20 13:36:54;;;;;;;0.55;0.55;;;;;;;;;;5981872;24;20019;-88
2021/11/20 13:39:19;;;;;;;0.30;0.30;;;;;;;;;;5981699;24;20103;-88
2021/11/20 13:41:52;;;;;;;0.10;0.10;;;;;;;;;;5981769;24;20023;-88
2021/11/20 13:44:18;;;;;;;;;;;;;;;;;;5982504;24;20024;-89
2021/11/20 13:46:44;;;;;;;0.20;0.20;;;;;;;;;;5981816;24;19922;-88
2021/11/20 13:49:10;;;;;;;0.30;0.30;;;;;;;;;;6005057;23;20434;-89
2021/11/20 13:51:37;;;;;;;0.10;0.10;;;;;;;;;;5981852;24;20290;-87
2021/11/20 13:54:08;;;;;;;0.10;0.10;;;;;;;;;;5981653;24;20016;-89
2021/11/20 13:56:34;;;;;;;0.28;0.28;;;;;;;;;;5981592;24;20481;-88
2021/11/20 13:59:01;;;;;;;0.75;0.40;;;;;;;;;;5981656;24;20020;-88
2021/11/20 14:01:28;;;;;;;0.77;0.45;;;;;;;;;;6005373;23;20047;-88
2021/11/20 14:03:55;;;;;;;0.10;0.10;;;;;;;;;;6005288;23;20230;-88
2021/11/20 14:06:21;;;;;;;0.10;0.10;;;;;;;;;;5981797;24;20068;-88
2021/11/20 14:08:49;;;;;;;0.10;0.10;;;;;;;;;;5981641;24;20051;-90
2021/11/20 14:11:18;;;;;;;0.30;0.30;;;;;;;;;;5981775;24;20020;-88
2021/11/20 14:13:48;;;;;;;0.52;0.38;;;;;;;;;;6004968;23;20027;-88
2021/11/20 14:16:14;;;;;;;0.10;0.10;;;;;;;;;;5981462;24;20401;-88
2021/11/20 14:18:47;;;;;;;0.32;0.28;;;;;;;;;;5981419;24;20343;-87
2021/11/20 14:21:13;;;;;;;0.10;0.10;;;;;;;;;;6005160;23;20092;-88
2021/11/20 14:23:44;;;;;;;0.10;0.10;;;;;;;;;;6004801;23;20020;-87
2021/11/20 14:26:10;;;;;;;0.30;0.30;;;;;;;;;;5981463;24;20013;-87
2021/11/20 14:28:37;;;;;;;0.10;0.10;;;;;;;;;;5981289;24;20148;-87
2021/11/20 14:31:07;;;;;;;0.10;0.10;;;;;;;;;;5981399;24;20016;-87
2021/11/20 14:33:33;;;;;;;0.20;0.20;;;;;;;;;;5981421;24;20292;-87
2021/11/20 14:36:00;;;;;;;0.30;0.20;;;;;;;;;;6005064;23;20057;-87
2021/11/20 14:38:29;;;;;;;0.10;0.10;;;;;;;;;;5981511;24;20091;-88
2021/11/20 14:40:58;;;;;;;0.10;0.10;;;;;;;;;;6004846;23;20020;-88
2021/11/20 14:43:29;;;;;;;0.10;0.10;;;;;;;;;;5981120;24;20435;-89
2021/11/20 14:45:55;;;;;;;0.10;0.10;;;;;;;;;;5981428;24;20050;-87
2021/11/20 14:48:23;;;;;;;0.25;0.25;;;;;;;;;;6004787;23;20016;-89
2021/11/20 14:50:51;;;;;;;0.13;0.13;;;;;;;;;;5981253;24;20024;-88
2021/11/20 14:53:18;;;;;;;0.10;0.10;;;;;;;;;;6004904;23;20091;-88
2021/11/20 14:55:48;;;;;;;0.40;0.40;;;;;;;;;;6004622;23;20040;-88